Time;durP1;ratioP1;P1;durP2;ratioP2;P2;SDS_P1;SDS_P2;PMS_P1;PMS_P2;Temp;Humidity;BMP_temperature;BMP_pressure;BME280_temperature;BME280_humidity;BME280_pressure;Samples;Min_cycle;Max_cycle;Signal;HPM_P1;HPM_P2
2024/02/12 00:04:43;;;;;;;30.10;20.62;;;;;;;8.89;100.00;98294.23;4989269;57;1141027;-82
2024/02/12 00:09:48;;;;;;;35.53;20.70;;;;;;;8.90;100.00;98296.38;4915738;57;1140648;-82
2024/02/12 00:14:54;;;;;;;26.83;20.37;;;;;;;8.90;100.00;98293.25;4849725;58;1141116;-82
2024/02/12 00:20:00;;;;;;;29.00;20.23;;;;;;;8.92;100.00;98290.46;4790474;59;1140572;-83
2024/02/12 00:25:07;;;;;;;29.80;20.77;;;;;;;8.93;100.00;98294.25;4843326;58;1140913;-82
2024/02/12 00:30:14;;;;;;;36.50;21.90;;;;;;;8.95;100.00;98296.73;4922239;58;1140677;-82
2024/02/12 00:35:20;;;;;;;24.45;16.48;;;;;;;8.98;100.00;98296.41;4868481;58;1141164;-83
2024/02/12 00:40:26;;;;;;;26.90;17.50;;;;;;;9.01;100.00;98300.84;4772921;59;1141611;-83
2024/02/12 00:45:31;;;;;;;29.77;19.67;;;;;;;9.04;100.00;98301.84;4778356;58;1140979;-83
2024/02/12 00:50:37;;;;;;;33.83;22.27;;;;;;;9.05;100.00;98304.81;4727095;60;1140667;-83
2024/02/12 00:55:44;;;;;;;29.05;19.15;;;;;;;9.04;100.00;98302.33;4816079;59;1140718;-83
2024/02/12 01:00:50;;;;;;;17.60;11.90;;;;;;;9.00;100.00;98304.98;4795723;59;1140881;-83
2024/02/12 01:05:56;;;;;;;17.47;12.03;;;;;;;8.93;100.00;98300.84;4804253;59;1141076;-80
2024/02/12 01:11:01;;;;;;;15.67;11.30;;;;;;;8.87;100.00;98304.12;4853782;59;1140507;-82
2024/02/12 01:16:10;;;;;;;13.10;9.97;;;;;;;8.85;100.00;98306.12;4853447;58;1141227;-82
2024/02/12 01:21:17;;;;;;;12.57;9.33;;;;;;;8.83;100.00;98308.58;4851527;58;1138617;-82
2024/02/12 01:26:24;;;;;;;8.90;7.33;;;;;;;8.80;100.00;98311.05;4823384;58;1139135;-82
2024/02/12 01:31:29;;;;;;;11.30;6.73;;;;;;;8.79;100.00;98305.44;4825098;59;1136517;-82
2024/02/12 01:36:36;;;;;;;13.07;8.53;;;;;;;8.76;100.00;98301.80;4850720;58;1138951;-82
2024/02/12 01:41:42;;;;;;;12.10;8.53;;;;;;;8.75;100.00;98307.56;4871955;58;1139016;-82
2024/02/12 01:46:51;;;;;;;15.03;10.03;;;;;;;8.75;100.00;98307.56;4908671;58;1139186;-82
2024/02/12 01:51:57;;;;;;;13.23;8.10;;;;;;;8.75;100.00;98310.69;4886267;58;1141098;-82
2024/02/12 01:57:03;;;;;;;9.00;6.33;;;;;;;8.76;100.00;98307.89;4907143;58;1139007;-82
2024/02/12 02:02:09;;;;;;;12.27;7.50;;;;;;;8.76;100.00;98314.48;4915855;58;1136541;-82
2024/02/12 02:07:21;;;;;;;9.73;6.63;;;;;;;8.75;100.00;98313.33;4922448;58;1138848;-82
2024/02/12 02:12:27;;;;;;;9.33;6.65;;;;;;;8.74;100.00;98320.41;4865340;58;1137099;-82
2024/02/12 02:17:34;;;;;;;11.33;6.67;;;;;;;8.72;100.00;98311.83;4946239;58;1136934;-82
2024/02/12 02:22:40;;;;;;;7.83;5.50;;;;;;;8.72;100.00;98318.91;4877396;58;1139119;-82
2024/02/12 02:27:46;;;;;;;9.23;5.60;;;;;;;8.71;100.00;98318.09;4914827;58;1136748;-82
2024/02/12 02:32:52;;;;;;;4.73;3.80;;;;;;;8.71;100.00;98316.77;4923445;58;1136487;-81
2024/02/12 02:38:01;;;;;;;11.63;4.60;;;;;;;8.68;100.00;98315.80;4868162;58;1137188;-82
2024/02/12 02:43:07;;;;;;;8.07;3.87;;;;;;;8.67;100.00;98312.00;4903923;58;1138602;-81
2024/02/12 02:48:12;;;;;;;6.83;4.73;;;;;;;8.66;100.00;98321.72;4904868;58;1136625;-81
2024/02/12 02:53:18;;;;;;;5.87;3.83;;;;;;;8.62;100.00;98325.65;4821859;59;1136484;-81
2024/02/12 02:58:24;;;;;;;5.00;3.75;;;;;;;8.56;100.00;98330.23;4860890;58;1136655;-81
2024/02/12 03:03:29;;;;;;;5.67;4.40;;;;;;;8.54;100.00;98336.17;4901015;58;1137092;-81
2024/02/12 03:08:35;;;;;;;4.50;3.70;;;;;;;8.47;100.00;98333.83;4928724;57;1137008;-82
2024/02/12 03:13:41;;;;;;;5.72;4.83;;;;;;;8.40;100.00;98338.09;4844881;58;1136713;-82
2024/02/12 03:18:46;;;;;;;6.80;4.47;;;;;;;8.33;100.00;98346.28;4868225;57;1137180;-82
2024/02/12 03:23:53;;;;;;;6.17;4.03;;;;;;;8.26;100.00;98351.31;4997399;57;1136663;-81
2024/02/12 03:28:58;;;;;;;6.77;4.70;;;;;;;8.16;100.00;98355.88;4998556;57;1137482;-82
2024/02/12 03:34:04;;;;;;;5.97;4.53;;;;;;;8.08;100.00;98364.58;5023035;57;1136730;-82
2024/02/12 03:39:11;;;;;;;5.50;4.37;;;;;;;8.01;100.00;98375.86;5012660;57;1136490;-82
2024/02/12 03:44:16;;;;;;;4.53;3.97;;;;;;;7.92;100.00;98372.37;4996736;57;1136804;-82
2024/02/12 04:00:16;;;;;;;3.52;3.22;;;;;;;7.58;100.00;98389.38;5008717;57;1136681;-82
2024/02/12 04:05:19;;;;;;;3.70;3.10;;;;;;;7.49;100.00;98401.28;4997329;57;1136724;-82
2024/02/12 04:10:24;;;;;;;4.40;3.52;;;;;;;7.41;100.00;98409.94;4975555;56;1137088;-82
2024/02/12 04:15:30;;;;;;;3.30;3.00;;;;;;;7.36;100.00;98416.95;4977731;57;1136606;-82
2024/02/12 04:20:37;;;;;;;4.60;3.57;;;;;;;7.34;100.00;98412.81;4919893;57;1137066;-82
2024/02/12 04:25:43;;;;;;;4.47;3.58;;;;;;;7.30;100.00;98421.52;4906848;57;1136781;-81
2024/02/12 04:30:49;;;;;;;3.35;3.05;;;;;;;7.25;100.00;98421.61;4960286;57;1136861;-79
2024/02/12 04:35:55;;;;;;;4.27;3.10;;;;;;;7.21;100.00;98423.70;4892557;58;1137213;-79
2024/02/12 04:41:01;;;;;;;3.97;3.17;;;;;;;7.22;100.00;98431.11;4889359;58;1136981;-81
2024/02/12 04:46:08;;;;;;;4.40;3.33;;;;;;;7.24;100.00;98434.42;4969997;56;1136994;-81
2024/02/12 04:51:13;;;;;;;3.43;2.77;;;;;;;7.25;100.00;98429.02;4930788;57;1136718;-81
2024/02/12 04:56:19;;;;;;;3.43;3.13;;;;;;;7.23;100.00;98440.16;4941609;58;1136576;-81
2024/02/12 05:01:27;;;;;;;4.17;3.50;;;;;;;7.24;100.00;98442.30;4983776;57;1137339;-82
2024/02/12 05:06:41;;;;;;;5.67;3.40;;;;;;;7.22;100.00;98445.56;5046402;57;1136683;-81
2024/02/12 05:11:43;;;;;;;3.27;3.00;;;;;;;7.17;100.00;98446.52;5001948;56;1136833;-81
2024/02/12 05:16:49;;;;;;;4.43;3.13;;;;;;;7.15;100.00;98451.92;5084742;56;1136571;-80
2024/02/12 05:27:17;;;;;;;2.60;2.40;;;;;;;7.12;100.00;98456.16;5022943;57;1136854;-80
2024/02/12 05:32:23;;;;;;;2.67;2.47;;;;;;;7.12;100.00;98464.03;5027255;56;1136896;-80
2024/02/12 05:37:28;;;;;;;3.53;2.57;;;;;;;7.12;100.00;98467.98;5006100;56;1136361;-81
2024/02/12 05:42:34;;;;;;;2.00;1.90;;;;;;;7.12;100.00;98475.87;4985716;57;1137195;-81
2024/02/12 05:47:41;;;;;;;2.33;2.10;;;;;;;7.14;100.00;98475.72;5025107;56;1137078;-81
2024/02/12 05:52:46;;;;;;;2.73;2.23;;;;;;;7.12;100.00;98476.35;5066511;56;1136688;-80
2024/02/12 05:57:52;;;;;;;6.37;4.47;;;;;;;7.13;100.00;98487.21;5066324;57;1136662;-82
2024/02/12 06:02:57;;;;;;;8.35;3.02;;;;;;;7.14;100.00;98491.50;5000092;57;1137147;-79
2024/02/12 06:08:04;;;;;;;3.63;2.20;;;;;;;7.06;100.00;98490.41;5044179;56;1136953;-80
2024/02/12 06:13:11;;;;;;;1.50;1.40;;;;;;;7.10;100.00;98502.78;5008490;56;1136763;-82
2024/02/12 06:18:17;;;;;;;1.73;1.60;;;;;;;7.09;100.00;98510.33;5023699;56;1136688;-82
2024/02/12 06:23:24;;;;;;;1.80;1.70;;;;;;;7.06;100.00;98514.06;5011812;57;1136614;-82
2024/02/12 06:28:30;;;;;;;1.87;1.43;;;;;;;7.02;100.00;98515.84;5012901;56;1136690;-81
2024/02/12 06:33:35;;;;;;;1.53;1.43;;;;;;;7.01;100.00;98524.70;4977884;55;1136763;-81
2024/02/12 06:38:42;;;;;;;3.70;2.40;;;;;;;6.97;100.00;98539.92;5002453;56;1136825;-82
2024/02/12 06:43:48;;;;;;;4.22;3.00;;;;;;;6.92;100.00;98547.88;4992185;57;1136834;-81
2024/02/12 06:48:53;;;;;;;21.20;11.47;;;;;;;6.87;100.00;98547.51;4893497;58;1136728;-81
2024/02/12 06:53:59;;;;;;;14.75;8.40;;;;;;;6.86;100.00;98553.73;4934374;57;1140790;-79
2024/02/12 06:59:04;;;;;;;6.73;4.50;;;;;;;6.86;100.00;98560.30;4956966;57;1138663;-82
2024/02/12 07:04:12;;;;;;;2.70;2.50;;;;;;;6.84;100.00;98564.87;4979545;57;1136877;-79
2024/02/12 07:09:18;;;;;;;1.70;1.60;;;;;;;6.82;100.00;98571.58;4937045;57;1136740;-79
2024/02/12 07:14:23;;;;;;;1.42;1.20;;;;;;;6.79;100.00;98578.91;4913357;57;1137046;-82
2024/02/12 07:19:31;;;;;;;2.60;1.37;;;;;;;6.73;100.00;98584.72;4989482;57;1136946;-80
2024/02/12 07:24:36;;;;;;;1.00;1.00;;;;;;;6.73;100.00;98587.34;4950510;57;1136739;-78
2024/02/12 07:29:43;;;;;;;8.50;4.75;;;;;;;6.72;100.00;98594.91;5030753;57;1136756;-81
2024/02/12 07:34:50;;;;;;;1.92;1.70;;;;;;;6.67;100.00;98594.84;4993229;57;1137126;-79
2024/02/12 07:39:56;;;;;;;5.57;2.60;;;;;;;6.67;100.00;98594.84;4930119;57;1136762;-77
2024/02/12 07:45:02;;;;;;;3.10;1.80;;;;;;;6.64;100.00;98605.63;4950586;57;1136764;-83
2024/02/12 07:50:09;;;;;;;1.87;1.77;;;;;;;6.66;100.00;98609.42;4966065;57;1136777;-82
2024/02/12 07:55:15;;;;;;;1.93;1.77;;;;;;;6.66;100.00;98615.51;4945100;57;1136819;-81
2024/02/12 08:00:20;;;;;;;2.63;2.00;;;;;;;6.65;100.00;98628.30;4938651;57;1137114;-77
2024/02/12 08:05:26;;;;;;;1.87;1.77;;;;;;;6.64;100.00;98624.02;4924993;57;1137041;-74
2024/02/12 08:10:32;;;;;;;2.93;2.33;;;;;;;6.63;100.00;98630.23;4953450;57;1136569;-76
2024/02/12 08:15:38;;;;;;;2.30;2.10;;;;;;;6.63;100.00;98635.97;4902098;57;1136817;-76
2024/02/12 08:20:44;;;;;;;2.20;1.90;;;;;;;6.63;100.00;98639.42;4971190;57;1136712;-76
2024/02/12 08:25:52;;;;;;;2.85;1.62;;;;;;;6.63;100.00;98653.88;4939948;57;1136956;-82
2024/02/12 08:30:57;;;;;;;2.30;2.07;;;;;;;6.62;100.00;98653.53;4900006;57;1136830;-80
2024/02/12 08:36:05;;;;;;;17.97;3.87;;;;;;;6.60;100.00;98652.83;4972074;57;1136531;-81
2024/02/12 08:41:25;;;;;;;4.70;1.87;;;;;;;6.61;100.00;98658.44;4887654;58;1138818;-78
2024/02/12 08:46:31;;;;;;;4.03;2.33;;;;;;;6.61;100.00;98666.31;4857523;58;1136758;-81
2024/02/12 08:51:37;;;;;;;3.47;2.10;;;;;;;6.61;100.00;98676.81;4818640;59;1136567;-81
2024/02/12 08:56:42;;;;;;;1.27;1.27;;;;;;;6.61;100.00;98680.75;4756244;59;1136661;-82
2024/02/12 09:01:48;;;;;;;2.00;1.83;;;;;;;6.59;100.00;98680.06;4772000;59;1136699;-74
2024/02/12 09:06:55;;;;;;;1.60;1.50;;;;;;;6.60;100.00;98692.71;4788407;58;1136639;-77
2024/02/12 09:12:01;;;;;;;1.70;1.60;;;;;;;6.57;100.00;98701.69;4795505;59;1136775;-81
2024/02/12 09:17:07;;;;;;;1.80;1.70;;;;;;;6.53;100.00;98705.59;4859461;58;1136886;-74
2024/02/12 09:22:13;;;;;;;2.20;1.60;;;;;;;6.51;100.00;98718.02;4837271;58;1136632;-82
2024/02/12 09:27:18;;;;;;;2.10;1.90;;;;;;;6.46;100.00;98719.39;4845368;57;1134644;-79
2024/02/12 09:32:24;;;;;;;1.63;1.53;;;;;;;6.45;100.00;98734.31;4761592;59;1134622;-80
2024/02/12 09:37:32;;;;;;;2.90;2.00;;;;;;;6.44;100.00;98734.45;4753463;59;1134899;-80
2024/02/12 09:42:36;;;;;;;2.47;1.80;;;;;;;6.44;100.00;98739.70;4873103;58;1134607;-82
2024/02/12 09:47:43;;;;;;;4.43;3.37;;;;;;;6.44;100.00;98744.47;4840854;58;1136293;-79
2024/02/12 09:52:49;;;;;;;2.53;2.03;;;;;;;6.47;100.00;98747.31;4872165;58;1136928;-81
2024/02/12 09:57:55;;;;;;;1.92;1.50;;;;;;;6.45;100.00;98749.23;4823380;58;1134653;-77
2024/02/12 10:03:00;;;;;;;15.58;10.65;;;;;;;6.44;100.00;98758.08;4894745;58;1136906;-80
2024/02/12 10:08:24;;;;;;;7.17;4.00;;;;;;;6.44;100.00;98766.78;4879894;58;1141193;-77
2024/02/12 10:13:29;;;;;;;2.50;2.27;;;;;;;6.45;100.00;98763.67;4858959;58;1137138;-85
2024/02/12 10:18:35;;;;;;;3.80;2.43;;;;;;;6.43;100.00;98773.00;4858888;58;1136893;-79
2024/02/12 10:23:40;;;;;;;4.17;3.33;;;;;;;6.47;100.00;98776.20;4839332;58;1136971;-82
2024/02/12 10:28:49;;;;;;;3.37;1.53;;;;;;;6.49;100.00;98778.20;4857655;58;1136985;-76
2024/02/12 10:33:57;;;;;;;3.92;1.10;;;;;;;6.45;100.00;98775.02;4852685;58;1136800;-81
2024/02/12 10:39:06;;;;;;;1.43;1.30;;;;;;;6.47;100.00;98785.39;4884159;58;1136553;-76
2024/02/12 10:44:19;;;;;;;1.47;1.20;;;;;;;6.47;100.00;98793.27;4839291;58;1136932;-81
2024/02/12 10:49:26;;;;;;;1.13;1.03;;;;;;;6.46;100.00;98783.24;4749585;59;1137026;-79
2024/02/12 10:54:32;;;;;;;1.80;1.70;;;;;;;6.46;100.00;98783.24;4765643;58;1136894;-78
2024/02/12 10:59:38;;;;;;;3.60;1.00;;;;;;;6.48;100.00;98791.81;4903935;57;1136982;-76
2024/02/12 11:04:46;;;;;;;1.83;1.50;;;;;;;6.49;100.00;98805.30;4938134;58;1136597;-81
2024/02/12 11:10:03;;;;;;;0.88;0.88;;;;;;;6.47;100.00;98805.91;4888375;58;1137256;-74
2024/02/12 11:15:12;;;;;;;0.67;0.60;;;;;;;6.47;100.00;98807.23;4891151;58;1136752;-83
2024/02/12 11:20:25;;;;;;;1.27;1.27;;;;;;;6.45;100.00;98803.90;4807402;58;1134904;-83
2024/02/12 11:25:30;;;;;;;0.90;0.90;;;;;;;6.45;100.00;98810.95;4893068;57;1134579;-79
2024/02/12 11:30:41;;;;;;;1.00;1.00;;;;;;;6.48;100.00;98814.14;4991700;57;1136703;-77
2024/02/12 11:35:48;;;;;;;1.20;1.10;;;;;;;6.49;100.00;98818.91;4940555;57;1137565;-79
2024/02/12 11:41:05;;;;;;;1.13;0.90;;;;;;;6.50;100.00;98823.20;4981056;57;1136772;-78
2024/02/12 11:46:06;;;;;;;1.00;0.90;;;;;;;6.49;100.00;98826.31;4937348;57;1137422;-83
2024/02/12 11:51:20;;;;;;;1.20;1.10;;;;;;;6.48;100.00;98836.47;4893160;57;1134971;-77
2024/02/12 11:56:26;;;;;;;1.30;1.20;;;;;;;6.48;100.00;98841.72;4983240;56;1136636;-83
2024/02/12 12:01:34;;;;;;;1.77;1.40;;;;;;;6.46;100.00;98842.81;4951270;56;1136793;-81
2024/02/12 12:06:39;;;;;;;1.43;1.30;;;;;;;6.44;100.00;98851.30;4915400;57;1134540;-82
2024/02/12 12:11:49;;;;;;;1.73;1.30;;;;;;;6.43;100.00;98858.34;4993758;57;1136594;-79
2024/02/12 12:16:55;;;;;;;1.33;0.90;;;;;;;6.39;100.00;98859.59;5008344;57;1143433;-80
2024/02/12 12:22:01;;;;;;;2.50;1.10;;;;;;;6.36;100.00;98859.86;4915614;58;1134776;-79
2024/02/12 12:27:07;;;;;;;1.20;1.10;;;;;;;6.31;100.00;98869.44;4957808;57;1134656;-81
2024/02/12 12:32:12;;;;;;;2.40;1.73;;;;;;;6.29;100.00;98875.78;5027917;56;1134786;-78
2024/02/12 12:37:18;;;;;;;1.20;1.10;;;;;;;6.22;100.00;98878.59;4933255;57;1134956;-78
2024/02/12 12:42:23;;;;;;;1.17;0.80;;;;;;;6.21;100.00;98889.58;4959162;57;1134818;-79
2024/02/12 12:47:29;;;;;;;1.20;1.10;;;;;;;6.19;100.00;98888.87;5005501;57;1134717;-80
2024/02/12 12:52:37;;;;;;;0.93;0.70;;;;;;;6.17;100.00;98899.98;4937291;57;1134407;-79
2024/02/12 12:57:44;;;;;;;0.80;0.80;;;;;;;6.15;100.00;98898.44;4978996;57;1134439;-80
2024/02/12 13:02:59;;;;;;;1.73;0.90;;;;;;;6.12;100.00;98911.34;4921249;57;1134798;-79
2024/02/12 13:08:04;;;;;;;1.47;1.23;;;;;;;6.10;100.00;98922.95;4890110;57;1134928;-84
2024/02/12 13:13:12;;;;;;;1.77;1.03;;;;;;;6.11;100.00;98928.05;4995589;57;1137133;-81
2024/02/12 13:18:19;;;;;;;1.90;0.97;;;;;;;6.11;100.00;98934.61;4965364;57;1134645;-81
2024/02/12 13:23:25;;;;;;;0.80;0.80;;;;;;;6.10;100.00;98940.02;4957887;57;1134763;-85
2024/02/12 13:28:31;;;;;;;2.00;1.75;;;;;;;6.08;100.00;98944.08;5058070;56;1134618;-84
2024/02/12 13:33:38;;;;;;;1.40;1.15;;;;;;;6.06;100.00;98960.43;5004583;57;1134911;-85
2024/02/12 13:38:44;;;;;;;1.20;1.03;;;;;;;6.05;100.00;98956.14;4993487;57;1134857;-80
2024/02/12 13:43:49;;;;;;;2.87;1.80;;;;;;;6.01;100.00;98965.22;4998842;57;1134378;-82
2024/02/12 13:48:55;;;;;;;3.47;1.43;;;;;;;6.00;100.00;98973.58;4988372;57;1134502;-81
2024/02/12 13:54:01;;;;;;;2.43;1.53;;;;;;;5.98;100.00;98975.48;5013498;56;1134800;-79
2024/02/12 13:59:06;;;;;;;1.57;1.30;;;;;;;5.96;100.00;98981.34;4941644;57;1134912;-76
2024/02/12 14:04:12;;;;;;;5.25;1.80;;;;;;;5.96;100.00;98987.06;4947194;57;1134680;-82
2024/02/12 14:09:24;;;;;;;1.13;0.90;;;;;;;5.98;100.00;99000.42;4980067;57;1134522;-78
2024/02/12 14:14:26;;;;;;;2.67;1.30;;;;;;;5.98;100.00;99008.77;4923604;57;1134895;-83
2024/02/12 14:19:32;;;;;;;3.00;1.05;;;;;;;5.98;100.00;99022.72;5013900;57;1134475;-86
2024/02/12 14:24:38;;;;;;;5.60;1.72;;;;;;;5.98;100.00;99024.52;4970497;57;1134379;-80
2024/02/12 14:29:44;;;;;;;2.00;1.50;;;;;;;5.99;100.00;99036.68;4959603;57;1134711;-81
2024/02/12 14:34:50;;;;;;;4.27;1.50;;;;;;;6.02;100.00;99047.41;4964164;57;1134875;-81
2024/02/12 14:39:56;;;;;;;1.20;1.07;;;;;;;6.04;100.00;99046.81;4980738;57;1134940;-83
2024/02/12 14:45:05;;;;;;;1.73;1.63;;;;;;;6.05;100.00;99055.87;4991163;57;1135089;-81
2024/02/12 14:50:18;;;;;;;3.27;1.70;;;;;;;6.07;100.00;99064.94;5027066;57;1134315;-84
2024/02/12 14:55:21;;;;;;;1.60;1.50;;;;;;;6.11;100.00;99072.41;5010330;56;1134587;-81
2024/02/12 15:00:28;;;;;;;1.05;1.05;;;;;;;6.12;100.00;99079.80;4937639;57;1134885;-78
2024/02/12 15:05:34;;;;;;;5.33;3.37;;;;;;;6.15;100.00;99084.80;5027162;56;1134461;-79
2024/02/12 15:10:40;;;;;;;2.47;2.33;;;;;;;6.18;100.00;99092.44;4966753;56;1134832;-83
2024/02/12 15:15:47;;;;;;;2.33;2.10;;;;;;;6.19;100.00;99091.00;4962545;56;1134873;-77
2024/02/12 15:20:52;;;;;;;2.23;2.03;;;;;;;6.22;100.00;99089.92;5014623;56;1134813;-77
2024/02/12 15:25:59;;;;;;;3.30;2.13;;;;;;;6.22;100.00;99099.95;4978398;57;1134507;-78
2024/02/12 15:31:05;;;;;;;4.70;2.67;;;;;;;6.22;100.00;99114.86;4971461;57;1134563;-82
2024/02/12 15:36:11;;;;;;;3.77;2.03;;;;;;;6.23;100.00;99117.84;4907182;58;1134765;-78
2024/02/12 15:41:22;;;;;;;4.35;2.75;;;;;;;6.24;100.00;99118.20;4959535;57;1134940;-78
2024/02/12 15:46:28;;;;;;;4.15;2.70;;;;;;;6.26;100.00;99126.78;4982185;57;1134467;-78
2024/02/12 15:51:34;;;;;;;2.55;2.33;;;;;;;6.27;100.00;99128.42;4995153;57;1136752;-80
2024/02/12 15:56:40;;;;;;;4.42;3.40;;;;;;;6.29;100.00;99137.02;4980520;57;1136912;-77
2024/02/12 16:01:47;;;;;;;7.30;3.67;;;;;;;6.33;100.00;99147.63;4962656;57;1136647;-83
2024/02/12 16:06:52;;;;;;;4.90;4.13;;;;;;;6.35;100.00;99148.34;4954916;57;1136591;-78
2024/02/12 16:11:59;;;;;;;8.03;4.97;;;;;;;6.37;100.00;99162.66;5006091;57;1137201;-78
2024/02/12 16:17:05;;;;;;;11.68;5.37;;;;;;;6.39;100.00;99167.31;5002744;56;1136599;-79
2024/02/12 16:22:11;;;;;;;16.43;6.77;;;;;;;6.43;100.00;99176.58;4984985;57;1138885;-81
2024/02/12 16:27:18;;;;;;;9.17;5.00;;;;;;;6.44;100.00;99190.06;4997527;57;1138765;-81
2024/02/12 16:32:25;;;;;;;9.40;5.83;;;;;;;6.45;100.00;99191.25;5014816;57;1137053;-82
2024/02/12 16:37:31;;;;;;;9.20;5.60;;;;;;;6.47;100.00;99199.02;5008799;57;1136689;-79
2024/02/12 16:42:38;;;;;;;6.83;4.37;;;;;;;6.48;100.00;99198.05;5020506;57;1137140;-80
2024/02/12 16:47:47;;;;;;;5.80;3.12;;;;;;;6.46;100.00;99211.31;4992689;57;1136965;-80
2024/02/12 16:52:56;;;;;;;4.62;3.72;;;;;;;6.47;100.00;99218.71;5013161;57;1134594;-79
2024/02/12 16:58:01;;;;;;;2.80;2.40;;;;;;;6.45;100.00;99229.34;4969062;57;1134262;-81
2024/02/12 17:03:07;;;;;;;3.37;2.93;;;;;;;6.46;100.00;99240.67;4996153;57;1134827;-80
2024/02/12 17:08:13;;;;;;;3.00;2.70;;;;;;;6.46;100.00;99252.50;4963572;57;1136960;-80
2024/02/12 17:13:18;;;;;;;4.63;3.40;;;;;;;6.44;100.00;99245.22;4971549;57;1136466;-79
2024/02/12 17:18:25;;;;;;;4.00;3.18;;;;;;;6.44;100.00;99255.23;4994975;57;1134571;-81
2024/02/12 17:23:31;;;;;;;3.22;2.92;;;;;;;6.43;100.00;99252.26;4951049;56;1136537;-83
2024/02/12 17:28:38;;;;;;;5.33;3.43;;;;;;;6.45;100.00;99263.95;4961965;56;1134465;-80
2024/02/12 17:33:44;;;;;;;5.73;3.53;;;;;;;6.46;100.00;99269.09;4972118;57;1137066;-82
2024/02/12 17:38:53;;;;;;;4.50;3.00;;;;;;;6.46;100.00;99282.22;4995557;57;1136528;-78
2024/02/12 17:43:58;;;;;;;6.33;2.57;;;;;;;6.49;100.00;99289.86;5011480;57;1134766;-81
2024/02/12 17:49:06;;;;;;;8.07;4.20;;;;;;;6.50;100.00;99292.84;4996988;57;1136864;-81
2024/02/12 17:54:13;;;;;;;6.70;5.00;;;;;;;6.52;100.00;99298.81;4986035;57;1136566;-78
2024/02/12 17:59:18;;;;;;;5.37;4.57;;;;;;;6.53;100.00;99311.47;4986379;57;1136668;-78
2024/02/12 18:04:30;;;;;;;6.40;4.00;;;;;;;6.53;100.00;99306.22;4999461;57;1136738;-80
2024/02/12 18:09:38;;;;;;;4.33;3.87;;;;;;;6.52;100.00;99311.95;5003299;57;1136786;-79
2024/02/12 18:14:45;;;;;;;10.25;6.00;;;;;;;6.53;100.00;99321.98;4967225;56;1137860;-80
2024/02/12 18:19:50;;;;;;;9.27;6.10;;;;;;;6.54;100.00;99321.86;4965487;57;1139003;-80
2024/02/12 18:24:56;;;;;;;10.23;6.97;;;;;;;6.54;100.00;99330.21;4945144;58;1136754;-78
2024/02/12 18:30:02;;;;;;;12.80;7.53;;;;;;;6.54;100.00;99333.67;4929516;57;1139524;-79
2024/02/12 18:35:10;;;;;;;15.50;7.07;;;;;;;6.52;100.00;99336.90;4935710;58;1139038;-81
2024/02/12 18:40:18;;;;;;;7.57;5.83;;;;;;;6.48;100.00;99338.09;4946889;58;1139195;-79
2024/02/12 18:45:24;;;;;;;6.90;4.72;;;;;;;6.46;100.00;99344.42;4953075;57;1134581;-81
2024/02/12 18:50:30;;;;;;;7.37;5.33;;;;;;;6.43;100.00;99346.80;4969457;57;1137262;-77
2024/02/12 18:55:35;;;;;;;4.62;3.33;;;;;;;6.43;100.00;99369.13;4978995;57;1134631;-78
2024/02/12 19:00:42;;;;;;;4.78;2.58;;;;;;;6.39;100.00;99374.77;4946849;57;1134843;-77
2024/02/12 19:05:50;;;;;;;2.30;2.00;;;;;;;6.33;100.00;99383.95;5009678;57;1134790;-76
2024/02/12 19:10:55;;;;;;;1.53;1.43;;;;;;;6.27;100.00;99403.62;5043258;57;1134572;-78
2024/02/12 19:16:01;;;;;;;2.33;2.13;;;;;;;6.22;100.00;99403.64;4996443;56;1134511;-77
2024/02/12 19:21:08;;;;;;;3.37;1.50;;;;;;;6.17;100.00;99418.43;4970061;56;1134521;-78
2024/02/12 19:26:14;;;;;;;3.30;1.60;;;;;;;6.13;100.00;99436.67;4956249;57;1134742;-78
2024/02/12 19:31:19;;;;;;;3.77;2.07;;;;;;;6.10;100.00;99438.72;4968524;56;1134746;-78
2024/02/12 19:36:25;;;;;;;1.67;1.27;;;;;;;6.11;100.00;99450.39;4883952;58;1134745;-78
2024/02/12 19:41:31;;;;;;;2.87;1.73;;;;;;;6.11;100.00;99458.77;4894954;58;1134709;-78
2024/02/12 19:46:36;;;;;;;4.25;1.85;;;;;;;6.09;100.00;99463.30;4861418;58;1134504;-78
2024/02/12 19:51:42;;;;;;;3.22;1.37;;;;;;;6.09;100.00;99468.07;4867471;58;1134769;-79
2024/02/12 19:56:47;;;;;;;1.90;1.72;;;;;;;6.09;100.00;99479.05;4907728;58;1134582;-78
2024/02/12 20:01:55;;;;;;;2.80;2.43;;;;;;;6.10;100.00;99491.22;4820110;59;1134768;-78
2024/02/12 20:07:03;;;;;;;4.13;2.83;;;;;;;6.10;100.00;99489.91;4962632;57;1134742;-78
2024/02/12 20:12:27;;;;;;;2.77;1.90;;;;;;;6.11;100.00;99496.33;5009779;57;1134571;-79
2024/02/12 20:17:33;;;;;;;2.87;2.30;;;;;;;6.12;100.00;99511.13;4988707;57;1134844;-79
2024/02/12 20:22:39;;;;;;;2.52;2.15;;;;;;;6.09;100.00;99516.63;4975567;57;1134828;-79
2024/02/12 20:27:44;;;;;;;2.13;1.63;;;;;;;6.08;100.00;99521.52;4961762;56;1134820;-80
2024/02/12 20:32:51;;;;;;;3.35;2.17;;;;;;;6.08;100.00;99529.39;4960292;57;1134942;-79
2024/02/12 20:37:57;;;;;;;3.57;2.27;;;;;;;6.08;100.00;99545.62;4948415;57;1134487;-80
2024/02/12 20:43:03;;;;;;;4.00;2.80;;;;;;;6.08;100.00;99556.12;4900777;58;1134416;-79
2024/02/12 20:48:10;;;;;;;3.40;2.30;;;;;;;6.06;100.00;99556.23;5037918;56;1136804;-80
2024/02/12 20:53:15;;;;;;;4.13;1.83;;;;;;;6.06;100.00;99565.89;4991781;56;1137006;-80
2024/02/12 20:58:23;;;;;;;5.50;2.80;;;;;;;6.02;100.00;99570.99;4962229;57;1134503;-80
2024/02/12 21:03:29;;;;;;;4.48;2.64;;;;;;;6.02;100.00;99579.70;5003794;57;1136897;-79
2024/02/12 21:08:36;;;;;;;4.10;2.45;;;;;;;6.02;100.00;99584.12;5029827;56;1136592;-81
2024/02/12 21:13:43;;;;;;;3.60;2.12;;;;;;;6.03;100.00;99595.82;5015040;56;1136692;-80
2024/02/12 21:18:49;;;;;;;1.60;1.50;;;;;;;6.03;100.00;99602.38;4961114;57;1137147;-80
2024/02/12 21:23:54;;;;;;;2.33;1.80;;;;;;;6.00;100.00;99606.06;4999513;57;1136634;-79
2024/02/12 21:29:02;;;;;;;4.23;1.53;;;;;;;5.97;100.00;99615.47;4953264;57;1134875;-80
2024/02/12 21:34:16;;;;;;;3.67;1.63;;;;;;;5.97;100.00;99623.34;4967382;57;1134951;-80
2024/02/12 21:39:28;;;;;;;4.00;1.57;;;;;;;5.95;100.00;99628.36;4981948;57;1134732;-79
2024/02/12 21:44:23;;;;;;;6.93;2.07;;;;;;;5.95;100.00;99639.70;4977396;56;1134675;-80
2024/02/12 21:49:31;;;;;;;5.20;2.70;;;;;;;5.95;100.00;99644.11;4896485;58;1135016;-81
2024/02/12 21:54:37;;;;;;;1.72;1.40;;;;;;;5.97;100.00;99661.87;4927684;57;1135056;-80
2024/02/12 21:59:42;;;;;;;8.20;2.52;;;;;;;5.96;100.00;99663.66;4999850;56;1134973;-80
2024/02/12 22:04:53;;;;;;;4.90;2.27;;;;;;;5.96;100.00;99675.47;4959395;57;1134922;-79
2024/02/12 22:09:58;;;;;;;3.70;2.07;;;;;;;5.92;100.00;99675.34;5036999;57;1134630;-79
2024/02/12 22:15:08;;;;;;;4.47;2.10;;;;;;;6.00;100.00;99690.52;5015451;57;1134608;-79
2024/02/12 22:20:14;;;;;;;2.13;1.20;;;;;;;6.00;100.00;99694.47;5015132;57;1135267;-81
2024/02/12 22:25:19;;;;;;;2.83;2.00;;;;;;;6.00;100.00;99697.09;5008391;57;1134701;-79
2024/02/12 22:30:25;;;;;;;6.37;1.93;;;;;;;6.03;100.00;99711.78;5036973;57;1134886;-80
2024/02/12 22:35:32;;;;;;;3.90;2.50;;;;;;;6.02;100.00;99719.29;5011844;56;1134521;-81
2024/02/12 22:40:37;;;;;;;8.50;2.05;;;;;;;6.03;100.00;99726.22;5001555;56;1136695;-79
2024/02/12 22:45:43;;;;;;;2.62;1.82;;;;;;;6.03;100.00;99727.06;5026581;57;1136592;-80
2024/02/12 22:50:48;;;;;;;3.40;2.27;;;;;;;6.04;100.00;99742.34;5024622;56;1134504;-80
2024/02/12 22:55:54;;;;;;;3.40;2.17;;;;;;;6.03;100.00;99749.37;4979200;57;1136672;-80
2024/02/12 23:00:59;;;;;;;4.07;2.47;;;;;;;6.02;100.00;99757.34;5005219;57;1134445;-78
2024/02/12 23:06:06;;;;;;;4.23;2.70;;;;;;;6.01;100.00;99763.08;4984533;57;1134823;-80
2024/02/12 23:11:12;;;;;;;7.07;2.50;;;;;;;5.99;100.00;99766.27;4973417;57;1134747;-80
2024/02/12 23:16:18;;;;;;;5.43;2.37;;;;;;;5.97;100.00;99779.97;4958062;57;1134763;-80
2024/02/12 23:21:24;;;;;;;11.27;3.57;;;;;;;5.93;100.00;99782.47;4960957;58;1134601;-79
2024/02/12 23:26:30;;;;;;;6.67;2.73;;;;;;;5.90;100.00;99787.45;4930534;58;1136857;-79
2024/02/12 23:31:35;;;;;;;4.85;3.12;;;;;;;5.87;100.00;99796.81;4874888;58;1134819;-80
2024/02/12 23:36:41;;;;;;;10.38;3.60;;;;;;;5.84;100.00;99813.24;4829284;58;1134492;-81
2024/02/12 23:41:46;;;;;;;8.87;3.27;;;;;;;5.80;100.00;99807.86;4811020;59;1136846;-79
2024/02/12 23:46:53;;;;;;;4.67;2.70;;;;;;;5.77;100.00;99818.09;4897810;58;1134580;-79